Glen Aubrey, New York
Current Conditions -  °F | °C
As of 3:14 PM on Monday 26 Jan 2015 (Local Time) from KBGM Reporting Station
Light Snow Light Snow  
Wind Chill: -14°   Ceiling: 3600
Heat Index: -8°   Visibility: 1.2mi
Dew Point: -11°   Wind: 7mph
Humidity: 84%   Direction: 50°NE
Pressure: 29.8"   Gusts: NA
Location:  42.26°N, 76.01°W
Report Text: KBGM 262014Z 05006KT 1 1/4SM -SN BR SCT026 OVC036 M08/M11 A2980 RMK AO2 P0000 T10831106
Loading
Personal Weather Stations






























Interactive Weather Map New forecast layout! Learn more

10-Day Weather Forecast

Advertisements
Track Severe Weather on mobile